Time;durP1;ratioP1;P1;durP2;ratioP2;P2;SDS_P1;SDS_P2;PMS_P1;PMS_P2;Temp;Humidity;BMP_temperature;BMP_pressure;BME280_temperature;BME280_humidity;BME280_pressure;Samples;Min_cycle;Max_cycle;Signal;HPM_P1;HPM_P2
2021/12/03 00:01:25;;;;;;;12.40;6.40;;;2.00;99.90;;;;;;4991018;28;20398;-53
2021/12/03 00:03:52;;;;;;;11.05;6.05;;;2.00;99.90;;;;;;4989900;28;20387;-53
2021/12/03 00:06:18;;;;;;;10.93;5.55;;;2.20;99.90;;;;;;4992673;28;20395;-53
2021/12/03 00:08:44;;;;;;;12.25;5.95;;;2.10;99.90;;;;;;4989646;28;20472;-55
2021/12/03 00:11:12;;;;;;;14.43;5.57;;;2.00;99.90;;;;;;4988224;28;20819;-54
2021/12/03 00:13:38;;;;;;;11.93;6.35;;;2.00;99.90;;;;;;4990194;28;20823;-53
2021/12/03 00:16:04;;;;;;;13.65;7.03;;;2.00;99.90;;;;;;4991838;28;20904;-54
2021/12/03 00:18:31;;;;;;;10.82;5.70;;;2.00;99.90;;;;;;4991031;28;20938;-54
2021/12/03 00:21:00;;;;;;;14.00;6.40;;;3.60;99.90;;;;;;4991409;28;20395;-54
2021/12/03 00:23:28;;;;;;;13.10;6.83;;;2.00;99.90;;;;;;4989786;28;20473;-60
2021/12/03 00:25:59;;;;;;;11.23;6.30;;;2.10;99.90;;;;;;4990956;28;20418;-55
2021/12/03 00:28:25;;;;;;;10.38;5.30;;;2.10;99.90;;;;;;4990804;28;20876;-59
2021/12/03 00:30:54;;;;;;;10.47;5.30;;;2.10;99.90;;;;;;4989017;28;20438;-54
2021/12/03 00:33:20;;;;;;;11.30;5.33;;;2.10;99.90;;;;;;4987486;28;20469;-57
2021/12/03 00:35:46;;;;;;;10.67;5.10;;;2.10;99.90;;;;;;4983357;28;20432;-55
2021/12/03 00:38:11;;;;;;;10.65;5.88;;;2.10;99.90;;;;;;4984947;28;20479;-54
2021/12/03 00:40:39;;;;;;;13.00;5.20;;;2.10;99.90;;;;;;4983893;28;20505;-55
2021/12/03 00:43:06;;;;;;;10.80;5.20;;;2.20;99.90;;;;;;4985343;28;20471;-54
2021/12/03 00:45:32;;;;;;;9.93;5.00;;;3.80;99.90;;;;;;4984106;28;20458;-55
2021/12/03 00:47:59;;;;;;;11.83;4.57;;;3.30;99.90;;;;;;4988232;28;20399;-55
2021/12/03 00:50:25;;;;;;;12.20;5.85;;;2.10;99.90;;;;;;4986099;28;20406;-59
2021/12/03 00:52:52;;;;;;;12.18;5.60;;;2.20;99.90;;;;;;4986947;28;20426;-54
2021/12/03 00:55:20;;;;;;;12.60;5.85;;;3.50;99.90;;;;;;4985245;28;20412;-56
2021/12/03 00:57:46;;;;;;;12.35;5.80;;;2.20;99.90;;;;;;4985463;28;20418;-54
2021/12/03 01:00:17;;;;;;;12.95;6.10;;;2.20;99.90;;;;;;4985654;28;20402;-54
2021/12/03 01:02:43;;;;;;;14.93;6.43;;;2.10;99.90;;;;;;4981238;28;21026;-54
2021/12/03 01:05:09;;;;;;;11.57;5.53;;;2.10;99.90;;;;;;4989378;28;20485;-54
2021/12/03 01:07:35;;;;;;;13.07;5.80;;;2.10;99.90;;;;;;4983632;28;20411;-54
2021/12/03 01:10:01;;;;;;;10.90;5.10;;;2.10;99.90;;;;;;4985603;28;20461;-56
2021/12/03 01:12:27;;;;;;;10.65;5.30;;;3.60;99.90;;;;;;4988309;28;20486;-59
2021/12/03 01:14:52;;;;;;;11.50;6.37;;;2.00;99.90;;;;;;4982814;28;20986;-54
2021/12/03 01:17:18;;;;;;;12.50;5.80;;;2.00;99.90;;;;;;4987836;28;20432;-53
2021/12/03 01:19:46;;;;;;;12.15;5.35;;;2.10;99.90;;;;;;4986303;28;20410;-54
2021/12/03 01:22:12;;;;;;;11.25;5.20;;;2.00;99.90;;;;;;4988662;28;20448;-54
2021/12/03 01:24:37;;;;;;;12.37;6.33;;;1.90;99.90;;;;;;4983541;28;20414;-53
2021/12/03 01:27:03;;;;;;;12.63;6.20;;;1.90;99.90;;;;;;4987439;28;20485;-56
2021/12/03 01:29:29;;;;;;;17.23;6.20;;;1.80;99.90;;;;;;4990116;28;20474;-54
2021/12/03 01:31:56;;;;;;;12.02;6.22;;;1.90;99.90;;;;;;4990591;28;20814;-54
2021/12/03 01:34:22;;;;;;;14.48;6.07;;;1.80;99.90;;;;;;4988768;28;20902;-55
2021/12/03 01:36:48;;;;;;;12.75;6.13;;;3.40;99.90;;;;;;4985436;28;20513;-53
2021/12/03 01:39:15;;;;;;;12.40;6.10;;;1.80;99.90;;;;;;4991428;28;20429;-54
2021/12/03 01:41:41;;;;;;;15.95;6.63;;;2.40;99.90;;;;;;4988816;28;21345;-54
2021/12/03 01:44:08;;;;;;;11.80;6.33;;;1.70;99.90;;;;;;4989948;28;20437;-54
2021/12/03 01:46:34;;;;;;;12.50;6.13;;;1.70;99.90;;;;;;4989792;28;20430;-54
2021/12/03 01:49:01;;;;;;;11.55;5.75;;;1.80;99.90;;;;;;4990676;28;20448;-53
2021/12/03 01:51:27;;;;;;;14.32;6.60;;;1.80;99.90;;;;;;4990538;28;20378;-60
2021/12/03 01:53:56;;;;;;;13.65;6.00;;;1.80;99.90;;;;;;4991119;28;20382;-55
2021/12/03 01:56:22;;;;;;;13.90;6.88;;;1.80;99.90;;;;;;4990781;28;20478;-53
2021/12/03 01:58:50;;;;;;;13.85;6.35;;;3.00;99.90;;;;;;4990097;28;20882;-54
2021/12/03 02:01:21;;;;;;;12.17;6.10;;;2.80;99.90;;;;;;4989511;28;20399;-54
2021/12/03 02:03:52;;;;;;;11.93;6.00;;;1.80;99.90;;;;;;4989475;28;20430;-54
2021/12/03 02:06:20;;;;;;;13.15;6.20;;;1.80;99.90;;;;;;4988877;28;20403;-54
2021/12/03 02:08:45;;;;;;;11.98;6.20;;;1.80;99.90;;;;;;4989881;28;20432;-54
2021/12/03 02:11:12;;;;;;;12.70;6.50;;;2.70;99.90;;;;;;4990421;28;20387;-54
2021/12/03 02:13:38;;;;;;;13.88;6.55;;;1.60;99.90;;;;;;4989770;28;20379;-54
2021/12/03 02:16:05;;;;;;;13.13;6.07;;;1.70;99.90;;;;;;4990577;28;20418;-53
2021/12/03 02:18:31;;;;;;;13.80;6.40;;;1.70;99.90;;;;;;4989535;28;20394;-54
2021/12/03 02:20:59;;;;;;;14.30;6.90;;;1.70;99.90;;;;;;4990339;28;20465;-54
2021/12/03 02:23:25;;;;;;;13.53;6.90;;;3.20;99.90;;;;;;4990176;28;20422;-60
2021/12/03 02:25:52;;;;;;;16.77;7.30;;;1.70;99.90;;;;;;4989737;28;20410;-54
2021/12/03 02:28:22;;;;;;;14.13;6.80;;;2.20;99.90;;;;;;4989439;28;20433;-54
2021/12/03 02:30:48;;;;;;;15.20;6.72;;;1.90;99.90;;;;;;4988825;28;21256;-54
2021/12/03 02:33:14;;;;;;;17.00;6.57;;;1.60;99.90;;;;;;4989426;28;20382;-54
2021/12/03 02:35:43;;;;;;;16.23;7.00;;;1.60;99.90;;;;;;4989035;28;20398;-53
2021/12/03 02:38:10;;;;;;;14.02;6.55;;;1.70;99.90;;;;;;4989600;28;20486;-54
2021/12/03 02:40:39;;;;;;;13.70;6.60;;;1.60;99.90;;;;;;4989410;28;20864;-54
2021/12/03 02:43:04;;;;;;;14.40;6.40;;;1.60;99.90;;;;;;4989915;28;20402;-52
2021/12/03 02:45:30;;;;;;;14.03;6.50;;;1.60;99.90;;;;;;4988777;28;20406;-55
2021/12/03 02:47:59;;;;;;;15.68;7.47;;;1.60;99.90;;;;;;4990136;28;20464;-52
2021/12/03 02:50:25;;;;;;;13.35;6.60;;;1.70;99.90;;;;;;4989467;28;20497;-59
2021/12/03 02:52:52;;;;;;;13.48;6.40;;;2.80;99.90;;;;;;4989468;28;20391;-53
2021/12/03 02:55:18;;;;;;;13.50;7.20;;;1.90;99.90;;;;;;4990174;28;20390;-52
2021/12/03 02:57:44;;;;;;;15.07;7.72;;;1.70;99.90;;;;;;4989159;28;20529;-52
2021/12/03 03:00:13;;;;;;;13.70;6.70;;;1.80;99.90;;;;;;4989946;28;20482;-53
2021/12/03 03:02:40;;;;;;;14.73;7.60;;;1.80;99.90;;;;;;4988747;28;20433;-53
2021/12/03 03:05:07;;;;;;;14.15;7.05;;;1.90;99.90;;;;;;4989551;28;20848;-53
2021/12/03 03:07:33;;;;;;;15.88;7.80;;;2.00;99.90;;;;;;4988993;28;20397;-53
2021/12/03 03:09:58;;;;;;;13.82;7.97;;;2.00;99.90;;;;;;4990052;28;20404;-56
2021/12/03 03:12:24;;;;;;;13.37;7.50;;;2.00;99.90;;;;;;4989979;28;20608;-58
2021/12/03 03:14:58;;;;;;;14.00;7.07;;;2.30;99.90;;;;;;4988860;28;20462;-52
2021/12/03 03:17:27;;;;;;;14.80;7.40;;;1.70;99.90;;;;;;4992748;28;20481;-52
2021/12/03 03:19:54;;;;;;;18.65;8.15;;;1.60;99.90;;;;;;4993534;28;20383;-52
2021/12/03 03:22:20;;;;;;;17.20;7.38;;;1.60;99.90;;;;;;4993467;28;20448;-52
2021/12/03 03:24:46;;;;;;;14.27;7.25;;;1.60;99.90;;;;;;4992911;28;21071;-52
2021/12/03 03:27:13;;;;;;;13.30;6.88;;;1.50;99.90;;;;;;4993441;28;20382;-52
2021/12/03 03:29:41;;;;;;;13.32;6.95;;;2.30;99.90;;;;;;4992723;28;20868;-53
2021/12/03 03:32:08;;;;;;;13.50;7.05;;;2.90;99.90;;;;;;4993268;28;20959;-56
2021/12/03 03:34:34;;;;;;;12.20;6.60;;;1.50;99.90;;;;;;4992760;28;20421;-53
2021/12/03 03:37:00;;;;;;;16.35;7.55;;;1.50;99.90;;;;;;4992974;28;20450;-53
2021/12/03 03:39:26;;;;;;;12.48;6.63;;;1.50;99.90;;;;;;4982473;28;20428;-59
2021/12/03 03:41:52;;;;;;;14.27;6.55;;;1.50;99.90;;;;;;4977750;28;20399;-53
2021/12/03 03:44:17;;;;;;;13.50;7.60;;;1.60;99.90;;;;;;4991867;28;20788;-52
2021/12/03 03:46:44;;;;;;;15.43;7.47;;;1.60;99.90;;;;;;4992022;28;20417;-53
2021/12/03 03:49:11;;;;;;;13.63;7.07;;;1.60;99.90;;;;;;4992556;28;20403;-53
2021/12/03 03:51:37;;;;;;;15.13;6.53;;;1.60;99.90;;;;;;4991555;28;20390;-54
2021/12/03 03:54:03;;;;;;;15.38;6.80;;;2.00;99.90;;;;;;4993065;28;20395;-52
2021/12/03 03:56:30;;;;;;;12.88;6.95;;;2.80;99.90;;;;;;4992240;28;20787;-59
2021/12/03 03:58:56;;;;;;;12.30;7.20;;;1.50;99.90;;;;;;4992692;28;20473;-53
2021/12/03 04:01:22;;;;;;;15.70;7.10;;;1.50;99.90;;;;;;4993405;28;20460;-52
2021/12/03 04:03:48;;;;;;;11.80;6.80;;;1.40;99.90;;;;;;4990805;28;20398;-52
2021/12/03 04:06:19;;;;;;;14.00;7.25;;;1.40;99.90;;;;;;4992794;28;20390;-53
2021/12/03 04:08:47;;;;;;;11.87;6.33;;;1.50;99.90;;;;;;4991859;28;20460;-52
2021/12/03 04:11:15;;;;;;;12.85;7.00;;;1.60;99.90;;;;;;4992152;28;20409;-53
2021/12/03 04:13:43;;;;;;;11.00;5.78;;;1.70;99.90;;;;;;4981448;28;20419;-52
2021/12/03 04:16:09;;;;;;;17.17;7.28;;;1.70;99.90;;;;;;4973110;28;20424;-52
2021/12/03 04:18:34;;;;;;;12.80;6.10;;;2.90;99.90;;;;;;4972936;28;20727;-53
2021/12/03 04:21:00;;;;;;;12.38;6.43;;;1.80;99.90;;;;;;4972877;28;20391;-52
2021/12/03 04:23:26;;;;;;;12.70;6.07;;;1.90;99.90;;;;;;4975250;28;20426;-54
2021/12/03 04:25:52;;;;;;;12.43;6.37;;;2.70;99.90;;;;;;4991864;28;20404;-53
2021/12/03 04:28:20;;;;;;;12.43;6.15;;;2.60;99.90;;;;;;4992109;28;20709;-53
2021/12/03 04:30:46;;;;;;;13.05;6.00;;;1.70;99.90;;;;;;4991321;28;20390;-52
2021/12/03 04:33:12;;;;;;;13.82;5.90;;;1.70;99.90;;;;;;4992385;28;20694;-52
2021/12/03 04:35:39;;;;;;;12.32;6.10;;;1.70;99.90;;;;;;4991843;28;20409;-52
2021/12/03 04:38:05;;;;;;;13.35;6.82;;;2.10;99.90;;;;;;4991991;28;20864;-52
2021/12/03 04:40:33;;;;;;;11.60;6.30;;;1.80;99.90;;;;;;4991276;28;20386;-58
2021/12/03 04:42:58;;;;;;;14.10;6.93;;;1.80;99.90;;;;;;4991006;28;20394;-52
2021/12/03 04:45:26;;;;;;;12.93;6.18;;;2.80;99.90;;;;;;4990467;28;20414;-53
2021/12/03 04:47:54;;;;;;;12.93;6.43;;;1.90;99.90;;;;;;4989915;28;20967;-53
2021/12/03 04:50:21;;;;;;;10.70;5.85;;;2.70;99.90;;;;;;4991586;28;20382;-53
2021/12/03 04:52:47;;;;;;;12.18;6.20;;;1.90;99.90;;;;;;4991190;28;20452;-52
2021/12/03 04:55:14;;;;;;;15.55;6.63;;;2.00;99.90;;;;;;4992002;28;20383;-52
2021/12/03 04:57:41;;;;;;;11.48;6.05;;;1.90;99.90;;;;;;4991121;28;20849;-52
2021/12/03 05:00:12;;;;;;;14.23;6.90;;;3.60;99.90;;;;;;4990369;28;20410;-53
2021/12/03 05:02:38;;;;;;;14.10;6.10;;;1.80;99.90;;;;;;4971505;28;20858;-52
2021/12/03 05:05:06;;;;;;;13.32;6.28;;;3.20;99.90;;;;;;4986242;28;20529;-53
2021/12/03 05:10:06;;;;;;;11.13;6.10;;;1.90;99.90;;;;;;4991725;28;20394;-53
2021/12/03 05:12:32;;;;;;;12.38;6.47;;;1.80;99.90;;;;;;4989969;28;20417;-59
2021/12/03 05:14:57;;;;;;;13.00;6.10;;;1.80;99.90;;;;;;4985636;28;20392;-52
2021/12/03 05:17:23;;;;;;;13.68;6.70;;;1.60;99.90;;;;;;4972231;28;20415;-52
2021/12/03 05:19:49;;;;;;;11.23;6.32;;;1.60;99.90;;;;;;4976987;28;20685;-53
2021/12/03 05:22:15;;;;;;;14.10;6.50;;;1.50;99.90;;;;;;4960601;28;20984;-52
2021/12/03 05:24:45;;;;;;;14.20;6.50;;;1.70;99.90;;;;;;4971645;28;20561;-52
2021/12/03 05:27:13;;;;;;;15.88;7.50;;;2.30;99.90;;;;;;4970214;28;20881;-52
2021/12/03 05:29:41;;;;;;;13.23;6.40;;;1.60;99.90;;;;;;4971428;28;20408;-53
2021/12/03 05:32:07;;;;;;;13.43;6.20;;;1.50;99.90;;;;;;4974199;28;20876;-53
2021/12/03 05:34:32;;;;;;;13.73;6.23;;;1.60;99.90;;;;;;4970891;28;20388;-59
2021/12/03 05:36:58;;;;;;;11.75;6.50;;;1.50;99.90;;;;;;4971372;28;20419;-55
2021/12/03 05:39:24;;;;;;;14.20;7.10;;;1.50;99.90;;;;;;4975331;28;20442;-53
2021/12/03 05:41:49;;;;;;;12.90;6.40;;;1.50;99.90;;;;;;4986550;28;20589;-54
2021/12/03 05:44:15;;;;;;;14.53;6.70;;;1.40;99.90;;;;;;4988823;28;20414;-58
2021/12/03 05:46:41;;;;;;;14.10;6.80;;;1.50;99.90;;;;;;4988385;28;20476;-53
2021/12/03 05:49:07;;;;;;;14.90;7.65;;;1.50;99.90;;;;;;4990366;28;20879;-52
2021/12/03 05:51:33;;;;;;;14.80;7.53;;;1.50;99.90;;;;;;4984107;28;20886;-60
2021/12/03 05:53:59;;;;;;;13.23;7.35;;;2.60;99.90;;;;;;4981341;28;20398;-53
2021/12/03 05:56:25;;;;;;;15.52;7.00;;;1.90;99.90;;;;;;4983163;28;20498;-56
2021/12/03 05:58:51;;;;;;;14.80;7.10;;;1.50;99.90;;;;;;4987647;28;20394;-53
2021/12/03 06:01:17;;;;;;;13.63;6.80;;;1.50;99.90;;;;;;4984709;28;20404;-53
2021/12/03 06:03:45;;;;;;;11.97;6.70;;;1.60;99.90;;;;;;4980982;28;20523;-54
2021/12/03 06:06:11;;;;;;;12.33;6.70;;;1.70;99.90;;;;;;4971092;28;20431;-53
2021/12/03 06:08:37;;;;;;;13.63;6.50;;;1.70;99.90;;;;;;4989032;28;20729;-53
2021/12/03 06:11:02;;;;;;;13.13;7.00;;;2.30;99.90;;;;;;4989459;28;20456;-52
2021/12/03 06:13:28;;;;;;;14.38;7.25;;;1.70;99.90;;;;;;4977125;28;20388;-54
2021/12/03 06:15:54;;;;;;;15.73;6.70;;;3.00;99.90;;;;;;4972182;28;20419;-53
2021/12/03 06:18:20;;;;;;;12.68;6.55;;;1.70;99.90;;;;;;4990744;28;20720;-53
2021/12/03 06:20:45;;;;;;;12.63;6.90;;;2.60;99.90;;;;;;4989483;28;20429;-53
2021/12/03 06:23:11;;;;;;;13.57;6.60;;;1.30;99.90;;;;;;4990396;28;20394;-53
2021/12/03 06:25:37;;;;;;;15.37;7.50;;;1.20;99.90;;;;;;4989824;28;20465;-53
2021/12/03 06:28:04;;;;;;;14.02;7.43;;;1.10;99.90;;;;;;4990166;28;20403;-52
2021/12/03 06:30:29;;;;;;;16.25;7.60;;;1.00;99.90;;;;;;4989844;28;20389;-57
2021/12/03 06:32:55;;;;;;;15.90;7.80;;;1.00;99.90;;;;;;4989745;28;20469;-53
2021/12/03 06:35:22;;;;;;;15.02;7.15;;;1.10;99.90;;;;;;4988487;28;20453;-53
2021/12/03 06:37:48;;;;;;;15.00;7.60;;;0.90;99.90;;;;;;4988999;28;20836;-53
2021/12/03 06:40:17;;;;;;;14.75;7.35;;;0.80;99.90;;;;;;4989992;28;20391;-53
2021/12/03 06:42:43;;;;;;;14.10;7.15;;;0.80;99.90;;;;;;4989205;28;20389;-53
2021/12/03 06:45:10;;;;;;;14.98;7.45;;;2.20;99.90;;;;;;4989791;28;20418;-53
2021/12/03 06:47:36;;;;;;;14.15;7.72;;;1.70;99.90;;;;;;4987891;28;20413;-53
2021/12/03 06:50:03;;;;;;;14.32;6.90;;;0.50;99.90;;;;;;4989687;28;20391;-52
2021/12/03 06:52:31;;;;;;;14.25;6.93;;;0.60;99.90;;;;;;4985951;28;20402;-55
2021/12/03 06:55:00;;;;;;;15.00;7.20;;;0.50;99.90;;;;;;4975457;28;20402;-53
2021/12/03 06:57:26;;;;;;;12.00;6.32;;;0.60;99.90;;;;;;4988691;28;20450;-53
2021/12/03 06:59:51;;;;;;;13.43;6.63;;;0.70;99.90;;;;;;4987410;28;20441;-52
2021/12/03 07:02:17;;;;;;;13.33;7.17;;;0.80;99.90;;;;;;4989065;28;20426;-53
2021/12/03 07:04:44;;;;;;;12.25;6.30;;;0.90;99.90;;;;;;4982428;28;20489;-53
2021/12/03 07:07:10;;;;;;;17.35;6.80;;;0.90;99.90;;;;;;4988718;28;20468;-53
2021/12/03 07:09:36;;;;;;;13.93;6.53;;;2.10;99.90;;;;;;4988416;28;20394;-53
2021/12/03 07:12:02;;;;;;;11.63;6.00;;;1.20;99.90;;;;;;4988709;28;20378;-53
2021/12/03 07:14:28;;;;;;;12.30;6.30;;;1.10;99.90;;;;;;4989027;28;20473;-52
2021/12/03 07:16:53;;;;;;;9.93;5.50;;;2.40;99.90;;;;;;4987539;28;20591;-53
2021/12/03 07:19:19;;;;;;;9.60;5.15;;;1.30;99.90;;;;;;4989544;28;20405;-52
2021/12/03 07:21:45;;;;;;;9.53;4.23;;;1.30;99.90;;;;;;4988321;28;20783;-52
2021/12/03 07:24:10;;;;;;;9.17;4.80;;;1.30;99.90;;;;;;4989121;28;20385;-54
2021/12/03 07:26:36;;;;;;;21.92;7.55;;;1.30;99.90;;;;;;4988522;28;20398;-53
2021/12/03 07:29:03;;;;;;;7.75;3.58;;;1.40;99.90;;;;;;4989897;28;20379;-53
2021/12/03 07:31:28;;;;;;;7.85;3.58;;;1.30;99.90;;;;;;4989106;28;20481;-53
2021/12/03 07:33:55;;;;;;;7.78;3.50;;;1.40;99.90;;;;;;4988585;28;20598;-53
2021/12/03 07:36:21;;;;;;;8.40;2.90;;;1.50;99.90;;;;;;4989308;28;20419;-53
2021/12/03 07:38:47;;;;;;;7.45;2.83;;;1.50;99.90;;;;;;4988227;28;20401;-53
2021/12/03 07:41:13;;;;;;;9.63;3.70;;;2.20;99.90;;;;;;4989222;28;20841;-52
2021/12/03 07:43:39;;;;;;;7.82;3.05;;;1.50;99.90;;;;;;4988221;28;20853;-52
2021/12/03 07:46:05;;;;;;;8.20;3.30;;;2.40;99.90;;;;;;4989145;28;20801;-51
2021/12/03 07:48:30;;;;;;;9.60;3.60;;;1.50;99.90;;;;;;4986417;28;20414;-51
2021/12/03 07:50:58;;;;;;;7.80;3.00;;;1.60;99.90;;;;;;4988642;28;20760;-51
2021/12/03 07:53:25;;;;;;;8.13;3.08;;;1.60;99.90;;;;;;4989301;28;20390;-52
2021/12/03 07:55:52;;;;;;;6.32;3.15;;;1.60;99.90;;;;;;4988277;28;20417;-52
2021/12/03 07:58:19;;;;;;;9.07;2.88;;;1.80;99.90;;;;;;4989429;28;20393;-54
2021/12/03 08:00:46;;;;;;;6.60;2.67;;;3.00;99.90;;;;;;4988431;28;20378;-51
2021/12/03 08:03:12;;;;;;;6.87;2.57;;;1.60;99.90;;;;;;4991638;28;20414;-52
2021/12/03 08:05:39;;;;;;;7.95;2.75;;;1.70;99.90;;;;;;4991639;28;20386;-52
2021/12/03 08:08:05;;;;;;;7.93;3.00;;;1.80;99.90;;;;;;4992515;28;20387;-52
2021/12/03 08:10:34;;;;;;;10.98;3.60;;;2.00;99.90;;;;;;4992427;28;20390;-52
2021/12/03 08:13:01;;;;;;;7.57;3.30;;;1.80;99.90;;;;;;4992289;28;20387;-55
2021/12/03 08:15:26;;;;;;;11.27;4.18;;;3.40;99.90;;;;;;4991517;28;20410;-52
2021/12/03 08:17:52;;;;;;;6.30;2.93;;;2.10;99.90;;;;;;4972547;28;20418;-54
2021/12/03 08:20:18;;;;;;;8.00;3.70;;;2.40;99.90;;;;;;4971589;28;20396;-54
2021/12/03 08:22:44;;;;;;;7.60;3.60;;;2.70;99.90;;;;;;4989346;28;20383;-55
2021/12/03 08:25:11;;;;;;;7.90;3.50;;;2.90;99.90;;;;;;4992549;28;20397;-55
2021/12/03 08:27:39;;;;;;;12.60;3.30;;;3.10;99.90;;;;;;4991712;28;20478;-59
2021/12/03 08:30:06;;;;;;;9.27;5.00;;;3.00;99.90;;;;;;4986368;28;20407;-55
2021/12/03 08:32:32;;;;;;;12.05;4.00;;;3.10;99.90;;;;;;4992007;28;20509;-55
2021/12/03 08:34:58;;;;;;;7.40;3.40;;;3.20;99.90;;;;;;4988782;28;20912;-54
2021/12/03 08:37:24;;;;;;;7.22;3.30;;;3.10;99.90;;;;;;4991726;28;20417;-55
2021/12/03 08:39:50;;;;;;;9.88;3.30;;;3.40;99.90;;;;;;4991224;28;20452;-53
2021/12/03 08:42:17;;;;;;;5.97;2.50;;;5.10;99.90;;;;;;4991465;28;20413;-53
2021/12/03 08:44:43;;;;;;;7.03;2.90;;;5.70;99.90;;;;;;4990993;28;20884;-53
2021/12/03 08:47:09;;;;;;;7.40;2.80;;;5.10;99.90;;;;;;4991743;28;20399;-53
2021/12/03 08:57:24;;;;;;;7.87;3.57;;;8.30;99.90;;;;;;4987461;28;20513;-55
2021/12/03 08:59:54;;;;;;;10.55;3.33;;;8.80;99.90;;;;;;4988181;28;20541;-55
2021/12/03 09:02:20;;;;;;;7.97;3.30;;;10.30;99.60;;;;;;4990026;28;20407;-55
2021/12/03 09:04:47;;;;;;;7.20;4.20;;;10.30;98.10;;;;;;4990789;28;20532;-54
2021/12/03 09:07:13;;;;;;;9.48;4.18;;;10.60;93.50;;;;;;4991153;28;20430;-55
2021/12/03 09:09:39;;;;;;;8.37;4.40;;;9.90;94.20;;;;;;4991178;28;20465;-56
2021/12/03 09:12:05;;;;;;;8.82;4.80;;;9.20;95.30;;;;;;4991743;28;20391;-55
2021/12/03 09:14:47;;;;;;;7.88;5.70;;;9.80;95.70;;;;;;4989027;28;20919;-55
2021/12/03 09:22:34;;;;;;;9.57;6.07;;;10.60;92.30;;;;;;4990825;28;20470;-53
2021/12/03 09:25:01;;;;;;;9.57;7.22;;;11.10;91.40;;;;;;4990923;28;20418;-55
2021/12/03 09:27:27;;;;;;;17.00;15.60;;;11.60;90.70;;;;;;4991324;28;20387;-52
2021/12/03 09:29:55;;;;;;;8.00;3.60;;;11.50;88.30;;;;;;4989259;28;20725;-54
2021/12/03 09:32:30;;;;;;;6.72;2.95;;;9.40;90.60;;;;;;4991385;28;20397;-52
2021/12/03 09:34:56;;;;;;;8.18;3.47;;;7.90;93.30;;;;;;4990673;28;20433;-54
2021/12/03 09:37:22;;;;;;;9.80;3.83;;;7.10;95.80;;;;;;4990681;28;20441;-52
2021/12/03 09:39:48;;;;;;;7.60;3.30;;;6.60;98.50;;;;;;4990037;28;20882;-53
2021/12/03 09:42:15;;;;;;;13.88;3.40;;;5.50;99.90;;;;;;4991325;28;20382;-55
2021/12/03 09:44:44;;;;;;;7.38;2.40;;;5.00;99.90;;;;;;4990117;28;20440;-56
2021/12/03 09:47:11;;;;;;;6.38;2.30;;;4.70;99.90;;;;;;4991041;28;20405;-54
2021/12/03 09:49:40;;;;;;;8.00;2.50;;;4.90;99.90;;;;;;4990558;28;20474;-61
2021/12/03 09:52:16;;;;;;;6.00;2.22;;;4.60;99.90;;;;;;4990594;28;20437;-56
2021/12/03 09:54:48;;;;;;;6.10;2.47;;;4.60;99.90;;;;;;4989930;28;20398;-54
2021/12/03 09:57:45;;;;;;;7.82;2.30;;;4.60;99.90;;;;;;4990885;28;20415;-54
2021/12/03 10:00:26;;;;;;;5.57;2.30;;;4.30;99.90;;;;;;4990428;28;20410;-54
2021/12/03 10:34:39;;;;;;;8.00;5.85;;;5.10;99.90;;;;;;4911108;29;20424;-56
2021/12/03 10:42:40;;;;;;;10.80;4.05;;;7.20;99.90;;;;;;4989976;28;20390;-54
2021/12/03 10:50:25;;;;;;;10.20;4.60;;;7.80;99.90;;;;;;4990275;28;20401;-58
2021/12/03 10:53:15;;;;;;;12.30;6.40;;;7.80;99.90;;;;;;4989130;28;20398;-55
2021/12/03 11:07:28;;;;;;;8.48;3.95;;;8.00;99.90;;;;;;4988831;28;21040;-55
2021/12/03 11:13:20;;;;;;;7.32;3.03;;;8.40;99.90;;;;;;4989177;28;20402;-60
2021/12/03 11:25:49;;;;;;;11.32;4.25;;;5.70;99.90;;;;;;4970272;28;20460;-54
2021/12/03 11:37:32;;;;;;;10.60;4.10;;;5.40;99.90;;;;;;4950257;28;20424;-55
2021/12/03 12:23:25;;;;;;;9.65;5.00;;;5.10;99.90;;;;;;4991525;28;20498;-58
2021/12/03 13:22:36;;;;;;;7.10;2.53;;;5.10;99.90;;;;;;4988053;28;20417;-54
2021/12/03 13:25:22;;;;;;;7.65;2.90;;;5.10;99.90;;;;;;4989633;28;20391;-61
2021/12/03 14:32:33;;;;;;;9.77;3.22;;;4.10;99.90;;;;;;4976238;28;20463;-55
2021/12/03 14:44:21;;;;;;;8.30;2.30;;;3.90;99.90;;;;;;4988856;28;20824;-57
2021/12/03 14:54:47;;;;;;;5.10;1.90;;;5.40;99.90;;;;;;4988620;28;20884;-55
2021/12/03 14:57:51;;;;;;;6.90;2.20;;;3.80;99.90;;;;;;4986936;28;20545;-56
2021/12/03 15:00:35;;;;;;;7.90;1.80;;;3.80;99.90;;;;;;4984569;28;20410;-54
2021/12/03 15:08:08;;;;;;;6.60;1.67;;;3.60;99.90;;;;;;4985804;28;20505;-54
2021/12/03 15:26:31;;;;;;;39.10;19.13;;;3.20;99.90;;;;;;4988783;28;20418;-54
2021/12/03 15:31:52;;;;;;;13.57;4.07;;;3.20;99.90;;;;;;4988999;28;20421;-54
2021/12/03 15:39:52;;;;;;;6.10;2.28;;;3.00;99.90;;;;;;4988742;28;20444;-54
2021/12/03 16:06:47;;;;;;;7.68;3.08;;;3.40;99.90;;;;;;4990780;28;20475;-54
2021/12/03 16:09:22;;;;;;;8.43;3.30;;;3.20;99.90;;;;;;4987422;28;20399;-54
2021/12/03 16:17:15;;;;;;;13.57;6.40;;;2.80;99.90;;;;;;4989282;28;20422;-54
2021/12/03 16:24:53;;;;;;;8.32;3.47;;;2.60;99.90;;;;;;4988720;28;20409;-54
2021/12/03 16:44:06;;;;;;;7.55;3.55;;;2.70;99.90;;;;;;4989046;28;20950;-54
2021/12/03 16:51:47;;;;;;;9.15;4.25;;;2.70;99.90;;;;;;4987319;28;20745;-54
2021/12/03 16:54:17;;;;;;;7.43;3.72;;;4.30;99.90;;;;;;4984971;28;20407;-55
2021/12/03 16:56:45;;;;;;;6.00;2.70;;;2.80;99.90;;;;;;4985273;28;20422;-54
2021/12/03 16:59:11;;;;;;;10.00;3.20;;;2.70;99.90;;;;;;4987417;28;20414;-55
2021/12/03 17:01:42;;;;;;;178.05;74.97;;;2.80;99.90;;;;;;4987980;28;20407;-54
2021/12/03 17:49:17;;;;;;;7.82;3.30;;;2.80;99.90;;;;;;4989916;28;20427;-54
2021/12/03 17:57:57;;;;;;;7.13;3.30;;;4.40;99.90;;;;;;4989007;28;20489;-56
2021/12/03 18:00:05;;;;;;;7.10;3.30;;;2.80;99.90;;;;;;4973113;28;20451;-55
2021/12/03 18:02:37;;;;;;;9.45;3.00;;;2.80;99.90;;;;;;4971125;28;20389;-54
2021/12/03 18:05:25;;;;;;;6.25;2.78;;;2.80;99.90;;;;;;4970199;28;20427;-53
2021/12/03 18:53:30;;;;;;;9.13;3.10;;;3.00;99.90;;;;;;4988995;28;21028;-55
2021/12/03 18:55:58;;;;;;;6.77;3.37;;;3.00;99.90;;;;;;4989301;28;20387;-61
2021/12/03 18:58:26;;;;;;;9.20;3.40;;;3.10;99.90;;;;;;4990206;28;20493;-54
2021/12/03 19:00:53;;;;;;;6.68;3.22;;;3.10;99.90;;;;;;4989876;28;20386;-63
2021/12/03 19:11:32;;;;;;;7.72;3.17;;;3.00;99.90;;;;;;4943248;29;20389;-54
2021/12/03 19:13:58;;;;;;;27.55;13.45;;;2.90;99.90;;;;;;4964917;28;20449;-56
2021/12/03 19:16:25;;;;;;;15.73;7.82;;;3.00;99.90;;;;;;4986384;28;20797;-55
2021/12/03 19:18:54;;;;;;;15.40;6.83;;;3.10;99.90;;;;;;4983571;28;20450;-55
2021/12/03 19:21:24;;;;;;;9.43;5.07;;;3.10;99.90;;;;;;4982505;28;20908;-54
2021/12/03 19:23:55;;;;;;;7.90;3.40;;;3.10;99.90;;;;;;4984159;28;20387;-54
2021/12/03 19:26:22;;;;;;;9.52;5.50;;;3.10;99.90;;;;;;4984618;28;20441;-55
2021/12/03 19:28:49;;;;;;;7.68;3.90;;;3.10;99.90;;;;;;4982339;28;20473;-54
2021/12/03 19:31:15;;;;;;;8.90;3.50;;;3.20;99.90;;;;;;4979038;28;20404;-54
2021/12/03 19:33:41;;;;;;;10.23;4.38;;;3.10;99.90;;;;;;4982967;28;20454;-55
2021/12/03 19:36:09;;;;;;;10.17;4.00;;;3.20;99.90;;;;;;4986333;28;20906;-54
2021/12/03 19:38:37;;;;;;;8.70;3.90;;;3.20;99.90;;;;;;4983782;28;20822;-55
2021/12/03 19:41:13;;;;;;;7.80;3.80;;;4.60;99.90;;;;;;4986152;28;20397;-54
2021/12/03 19:44:02;;;;;;;9.50;3.50;;;3.10;99.90;;;;;;4984037;28;20402;-54
2021/12/03 19:46:31;;;;;;;7.88;3.67;;;3.10;99.90;;;;;;4986815;28;20422;-54
2021/12/03 19:51:26;;;;;;;8.48;3.70;;;3.70;99.90;;;;;;4988654;28;20856;-55
2021/12/03 19:53:59;;;;;;;8.60;4.00;;;3.10;99.90;;;;;;4988564;28;20386;-54
2021/12/03 19:56:30;;;;;;;8.13;3.70;;;3.20;99.90;;;;;;4989055;28;20417;-55
2021/12/03 19:58:58;;;;;;;9.52;3.83;;;3.20;99.90;;;;;;4990574;28;20462;-61
2021/12/03 20:01:24;;;;;;;7.95;3.28;;;3.10;99.90;;;;;;4991688;28;20868;-55
2021/12/03 20:03:52;;;;;;;7.65;3.55;;;3.20;99.90;;;;;;4992310;28;20464;-55
2021/12/03 20:06:18;;;;;;;8.88;4.10;;;3.20;99.90;;;;;;4991926;28;20924;-54
2021/12/03 20:08:45;;;;;;;7.05;3.42;;;3.30;99.90;;;;;;4992419;28;20378;-55
2021/12/03 20:11:10;;;;;;;7.90;3.53;;;4.30;99.90;;;;;;4991124;28;20414;-55
2021/12/03 20:13:42;;;;;;;45.25;22.33;;;4.10;99.90;;;;;;4992342;28;20503;-54
2021/12/03 20:16:18;;;;;;;35.35;14.00;;;3.40;99.90;;;;;;4991959;28;20552;-55
2021/12/03 20:18:56;;;;;;;39.10;14.50;;;3.30;99.90;;;;;;4991589;28;20756;-54
2021/12/03 20:21:24;;;;;;;58.27;22.07;;;3.40;99.90;;;;;;4992116;28;20469;-55
2021/12/03 20:24:08;;;;;;;19.95;8.10;;;3.40;99.90;;;;;;4991090;28;20500;-54
2021/12/03 20:27:20;;;;;;;62.43;31.70;;;3.40;99.90;;;;;;4992347;28;20394;-54
2021/12/03 20:29:32;;;;;;;15.60;8.35;;;3.30;99.90;;;;;;4981092;28;21193;-55
2021/12/03 20:32:11;;;;;;;28.85;18.25;;;3.40;99.90;;;;;;4978342;28;20443;-63
2021/12/03 20:37:26;;;;;;;8.00;3.45;;;3.60;99.90;;;;;;4972847;28;20415;-55
2021/12/03 20:39:55;;;;;;;8.10;3.97;;;3.50;99.90;;;;;;4973478;28;20388;-55
2021/12/03 20:42:26;;;;;;;9.18;4.55;;;3.80;99.90;;;;;;4973062;28;20376;-54
2021/12/03 20:50:34;;;;;;;9.10;3.80;;;3.70;99.90;;;;;;4991311;28;20471;-53